Time;durP1;ratioP1;P1;durP2;ratioP2;P2;SDS_P1;SDS_P2;PMS_P1;PMS_P2;Temp;Humidity;BMP_temperature;BMP_pressure;BME280_temperature;BME280_humidity;BME280_pressure;Samples;Min_cycle;Max_cycle;Signal;HPM_P1;HPM_P2
2023/01/19 00:01:38;;;;;;;14.30;7.13;;;2.50;99.90;;;;;;5008977;28;20042;-69
2023/01/19 00:04:04;;;;;;;13.18;6.20;;;2.40;99.90;;;;;;5010446;28;20038;-69
2023/01/19 00:06:30;;;;;;;15.50;6.55;;;2.50;99.90;;;;;;5010735;28;20057;-68
2023/01/19 00:08:56;;;;;;;18.65;6.45;;;2.50;99.90;;;;;;5009247;28;20057;-68
2023/01/19 00:11:22;;;;;;;19.67;6.20;;;2.50;99.90;;;;;;5011405;28;20068;-69
2023/01/19 00:13:52;;;;;;;11.50;5.45;;;2.50;99.90;;;;;;5009824;28;20058;-68
2023/01/19 00:16:20;;;;;;;11.57;4.60;;;2.50;99.90;;;;;;5008607;28;20112;-69
2023/01/19 00:18:46;;;;;;;12.70;4.80;;;2.50;99.90;;;;;;5011493;28;20092;-69
2023/01/19 00:21:15;;;;;;;11.07;4.30;;;2.50;99.90;;;;;;5007368;28;20034;-69
2023/01/19 00:23:41;;;;;;;10.38;4.35;;;2.40;99.90;;;;;;5008114;28;20038;-69
2023/01/19 00:26:07;;;;;;;14.25;4.90;;;2.40;99.90;;;;;;5011852;28;20046;-69
2023/01/19 00:28:33;;;;;;;8.88;4.63;;;2.40;99.90;;;;;;5010011;28;20037;-69
2023/01/19 00:30:59;;;;;;;12.50;4.47;;;2.40;99.90;;;;;;5005224;28;20855;-69
2023/01/19 00:33:25;;;;;;;10.00;3.97;;;2.40;99.90;;;;;;5009346;28;20065;-69
2023/01/19 00:35:51;;;;;;;9.32;4.45;;;2.30;99.90;;;;;;5009011;28;20030;-69
2023/01/19 00:38:18;;;;;;;8.48;4.20;;;2.30;99.90;;;;;;5006574;28;20038;-69
2023/01/19 00:40:43;;;;;;;9.02;5.00;;;2.30;99.90;;;;;;5010855;28;20502;-69
2023/01/19 00:43:09;;;;;;;9.15;4.20;;;2.20;99.90;;;;;;5007938;28;20046;-69
2023/01/19 00:45:34;;;;;;;12.95;4.88;;;2.20;99.90;;;;;;5005483;28;20133;-69
2023/01/19 00:48:00;;;;;;;11.75;4.35;;;2.20;99.90;;;;;;5010464;28;20044;-69
2023/01/19 00:50:28;;;;;;;13.07;4.53;;;2.10;99.90;;;;;;5012680;28;20045;-69
2023/01/19 00:52:55;;;;;;;11.38;5.05;;;2.10;99.90;;;;;;5012993;28;20434;-69
2023/01/19 00:55:21;;;;;;;14.52;5.88;;;2.10;99.90;;;;;;5010687;28;20046;-69
2023/01/19 00:57:47;;;;;;;12.45;5.63;;;2.10;99.90;;;;;;5011196;28;20411;-69
2023/01/19 01:00:20;;;;;;;15.98;5.30;;;2.20;99.90;;;;;;5009810;28;20038;-69
2023/01/19 01:02:49;;;;;;;11.50;5.65;;;2.20;99.90;;;;;;5010841;28;20052;-69
2023/01/19 01:05:15;;;;;;;20.17;6.03;;;2.30;99.90;;;;;;5012150;28;20042;-69
2023/01/19 01:07:43;;;;;;;12.55;5.60;;;2.30;99.90;;;;;;5011304;28;20054;-69
2023/01/19 01:10:14;;;;;;;18.90;5.75;;;2.30;99.90;;;;;;5011043;28;20427;-69
2023/01/19 01:12:40;;;;;;;15.38;5.32;;;2.30;99.90;;;;;;5011771;28;20042;-69
2023/01/19 01:15:09;;;;;;;12.70;5.85;;;2.20;99.90;;;;;;5009502;28;20060;-69
2023/01/19 01:17:35;;;;;;;13.32;5.43;;;2.30;99.90;;;;;;5011089;28;20069;-69
2023/01/19 01:20:03;;;;;;;14.73;4.75;;;2.30;99.90;;;;;;5004314;28;20065;-69
2023/01/19 01:22:29;;;;;;;18.92;5.15;;;2.50;99.90;;;;;;5012951;28;20044;-69
2023/01/19 01:24:54;;;;;;;16.05;4.90;;;2.30;99.90;;;;;;5009047;28;20117;-69
2023/01/19 01:27:20;;;;;;;17.55;4.38;;;2.40;99.90;;;;;;5011002;28;20049;-70
2023/01/19 01:29:45;;;;;;;13.32;3.95;;;2.40;99.90;;;;;;5008779;28;20041;-69
2023/01/19 01:32:15;;;;;;;6.72;3.38;;;2.50;99.90;;;;;;5007737;28;20038;-69
2023/01/19 01:34:41;;;;;;;8.68;2.88;;;2.40;99.90;;;;;;5005087;28;20065;-69
2023/01/19 01:37:07;;;;;;;11.43;3.20;;;2.40;99.90;;;;;;5008139;28;20050;-69
2023/01/19 01:39:34;;;;;;;11.70;2.58;;;2.50;99.90;;;;;;5009648;28;20042;-69
2023/01/19 01:42:00;;;;;;;12.98;2.67;;;2.50;99.90;;;;;;5010249;28;20121;-69
2023/01/19 01:44:48;;;;;;;9.32;2.85;;;2.50;99.90;;;;;;5007301;28;20176;-69
2023/01/19 01:47:41;;;;;;;15.60;3.15;;;2.50;99.90;;;;;;5006942;28;20054;-69
2023/01/19 01:50:15;;;;;;;10.23;3.22;;;2.50;99.90;;;;;;5005733;28;20053;-69
2023/01/19 01:52:57;;;;;;;18.70;3.10;;;2.60;99.90;;;;;;5011496;28;20046;-69
2023/01/19 01:55:26;;;;;;;9.57;2.70;;;2.60;99.90;;;;;;5007615;28;20505;-69
2023/01/19 01:57:57;;;;;;;8.27;2.72;;;2.60;99.90;;;;;;5005964;28;20550;-69
2023/01/19 02:00:24;;;;;;;11.00;2.72;;;2.60;99.90;;;;;;5007786;28;21285;-69
2023/01/19 02:02:50;;;;;;;11.55;2.63;;;2.60;99.90;;;;;;5009646;28;20057;-69
2023/01/19 02:05:21;;;;;;;10.02;3.70;;;2.70;99.90;;;;;;5009131;28;20042;-69
2023/01/19 02:13:19;;;;;;;15.02;4.88;;;2.70;99.90;;;;;;5013822;28;20466;-68
2023/01/19 02:15:50;;;;;;;8.80;4.97;;;2.70;99.90;;;;;;5012533;28;20503;-69
2023/01/19 02:18:16;;;;;;;12.88;5.78;;;2.70;99.90;;;;;;5012628;28;20100;-70
2023/01/19 02:21:21;;;;;;;24.63;6.72;;;2.70;99.90;;;;;;5013222;28;20046;-70
2023/01/19 02:23:50;;;;;;;17.98;6.93;;;2.60;99.90;;;;;;5013316;28;20606;-69
2023/01/19 02:26:19;;;;;;;14.13;5.93;;;2.60;99.90;;;;;;5012152;28;20045;-70
2023/01/19 02:28:50;;;;;;;15.00;6.53;;;2.60;99.90;;;;;;5012045;28;20495;-69
2023/01/19 02:31:17;;;;;;;14.35;6.75;;;2.90;99.90;;;;;;5010989;28;20451;-69
2023/01/19 02:33:42;;;;;;;11.85;5.97;;;2.60;99.90;;;;;;5012591;28;20045;-69
2023/01/19 02:36:14;;;;;;;19.35;7.40;;;2.50;99.90;;;;;;5009721;28;20034;-69
2023/01/19 02:38:41;;;;;;;15.20;6.40;;;2.50;99.90;;;;;;5012331;28;20037;-69
2023/01/19 02:41:11;;;;;;;12.05;6.32;;;2.50;99.90;;;;;;5008753;28;20042;-69
2023/01/19 02:43:37;;;;;;;15.65;6.15;;;2.50;99.90;;;;;;5010291;28;20566;-69
2023/01/19 02:46:03;;;;;;;20.45;6.63;;;2.50;99.90;;;;;;5010439;28;20562;-69
2023/01/19 02:48:29;;;;;;;16.83;6.65;;;2.50;99.90;;;;;;5013454;28;20066;-69
2023/01/19 02:51:09;;;;;;;14.13;6.68;;;2.50;99.90;;;;;;5011736;28;20061;-69
2023/01/19 02:53:50;;;;;;;11.63;5.88;;;2.50;99.90;;;;;;5008872;28;20483;-69
2023/01/19 02:56:27;;;;;;;15.63;5.47;;;2.50;99.90;;;;;;5009387;28;20042;-69
2023/01/19 02:59:00;;;;;;;17.40;6.15;;;2.50;99.90;;;;;;5009866;28;20054;-69
2023/01/19 03:01:31;;;;;;;11.10;5.53;;;2.50;99.90;;;;;;5008588;28;20066;-69
2023/01/19 03:04:02;;;;;;;11.60;4.95;;;2.50;99.90;;;;;;5011768;28;20096;-69
2023/01/19 03:06:45;;;;;;;14.55;5.20;;;2.50;99.90;;;;;;5011820;28;20354;-69
2023/01/19 03:09:21;;;;;;;9.48;4.43;;;2.40;99.90;;;;;;5001818;28;20042;-69
2023/01/19 03:11:58;;;;;;;11.77;5.72;;;2.40;99.90;;;;;;5012307;28;20056;-69
2023/01/19 03:14:29;;;;;;;16.17;6.03;;;2.50;99.90;;;;;;5007025;28;20045;-69
2023/01/19 03:16:59;;;;;;;13.35;5.25;;;2.40;99.90;;;;;;5012181;28;20522;-69
2023/01/19 03:19:33;;;;;;;12.23;5.25;;;2.40;99.90;;;;;;5010299;28;20388;-69
2023/01/19 03:22:10;;;;;;;12.93;5.50;;;2.40;99.90;;;;;;5012081;28;20042;-69
2023/01/19 03:24:40;;;;;;;10.68;5.07;;;2.40;99.90;;;;;;5011575;28;20495;-69
2023/01/19 03:27:11;;;;;;;16.40;5.93;;;2.40;99.90;;;;;;5011335;28;20049;-69
2023/01/19 03:29:40;;;;;;;13.82;5.47;;;2.40;99.90;;;;;;5008605;28;20104;-69
2023/01/19 03:32:11;;;;;;;8.63;4.80;;;2.40;99.90;;;;;;5008866;28;20128;-69
2023/01/19 03:34:38;;;;;;;13.25;5.50;;;2.40;99.90;;;;;;5010115;28;20053;-69
2023/01/19 03:37:06;;;;;;;17.25;5.93;;;2.30;99.90;;;;;;5012613;28;20049;-70
2023/01/19 03:39:33;;;;;;;19.40;6.23;;;2.30;99.90;;;;;;5011857;28;20109;-70
2023/01/19 03:42:05;;;;;;;19.08;6.97;;;2.40;99.90;;;;;;5011379;28;20650;-70
2023/01/19 03:44:33;;;;;;;15.57;6.55;;;2.40;99.90;;;;;;5008864;28;20120;-70
2023/01/19 03:47:01;;;;;;;16.67;7.18;;;2.40;99.90;;;;;;5009563;28;20042;-70
2023/01/19 03:49:30;;;;;;;10.27;5.82;;;2.40;99.90;;;;;;5008400;28;20042;-70
2023/01/19 03:51:57;;;;;;;19.38;6.38;;;2.40;99.90;;;;;;5011024;28;20046;-70
2023/01/19 03:54:23;;;;;;;26.17;7.47;;;2.40;99.90;;;;;;5013145;28;20120;-69
2023/01/19 03:56:51;;;;;;;21.13;6.80;;;2.40;99.90;;;;;;5012058;28;20385;-69
2023/01/19 03:59:18;;;;;;;17.15;6.25;;;2.40;99.90;;;;;;5009259;28;20106;-69
2023/01/19 04:01:44;;;;;;;24.77;6.80;;;2.40;99.90;;;;;;5009930;28;20594;-69
2023/01/19 04:04:12;;;;;;;20.02;7.35;;;2.40;99.90;;;;;;5008737;28;20304;-69
2023/01/19 04:06:38;;;;;;;19.27;6.43;;;2.40;99.90;;;;;;5010490;28;20061;-70
2023/01/19 04:09:04;;;;;;;22.50;7.03;;;2.40;99.90;;;;;;5010648;28;20084;-70
2023/01/19 04:11:29;;;;;;;16.30;6.60;;;2.50;99.90;;;;;;5009833;28;20042;-69
2023/01/19 04:13:55;;;;;;;25.05;7.80;;;2.50;99.90;;;;;;5010896;28;20053;-69
2023/01/19 04:16:22;;;;;;;23.15;6.85;;;2.60;99.90;;;;;;5009832;28;20034;-69
2023/01/19 04:18:48;;;;;;;19.35;6.97;;;2.40;99.90;;;;;;5003891;28;20061;-69
2023/01/19 04:21:13;;;;;;;20.85;6.78;;;2.50;99.90;;;;;;5011310;28;20037;-69
2023/01/19 04:23:39;;;;;;;17.35;7.10;;;2.40;99.90;;;;;;5012189;28;20050;-69
2023/01/19 04:26:06;;;;;;;25.33;7.50;;;2.50;99.90;;;;;;5010047;28;20033;-69
2023/01/19 04:28:33;;;;;;;16.88;6.45;;;2.40;99.90;;;;;;5010229;28;20065;-70
2023/01/19 04:30:59;;;;;;;17.75;6.97;;;2.40;99.90;;;;;;5010473;28;20056;-69
2023/01/19 04:33:27;;;;;;;18.10;6.78;;;2.40;99.90;;;;;;5011865;28;20423;-69
2023/01/19 04:35:53;;;;;;;30.05;7.53;;;2.30;99.90;;;;;;5010303;28;20052;-69
2023/01/19 04:38:19;;;;;;;17.08;7.22;;;2.30;99.90;;;;;;5007966;28;20760;-69
2023/01/19 04:40:45;;;;;;;28.63;7.78;;;2.30;99.90;;;;;;5008686;28;20038;-69
2023/01/19 04:43:11;;;;;;;21.05;7.47;;;2.30;99.90;;;;;;5008047;28;20038;-69
2023/01/19 04:45:37;;;;;;;15.02;6.18;;;2.30;99.90;;;;;;5008873;28;20395;-69
2023/01/19 04:48:04;;;;;;;21.05;5.97;;;2.30;99.90;;;;;;5010936;28;20095;-69
2023/01/19 04:50:30;;;;;;;25.50;6.57;;;2.20;99.90;;;;;;5009231;28;20132;-69
2023/01/19 04:52:56;;;;;;;18.45;5.93;;;2.30;99.90;;;;;;5010329;28;20128;-68
2023/01/19 04:55:21;;;;;;;23.65;6.72;;;2.30;99.90;;;;;;5009199;28;20034;-68
2023/01/19 04:57:47;;;;;;;20.33;6.20;;;2.20;99.90;;;;;;5009099;28;20438;-68
2023/01/19 05:00:13;;;;;;;16.63;6.20;;;2.20;99.90;;;;;;5007881;28;20041;-69
2023/01/19 05:02:41;;;;;;;25.58;6.15;;;2.20;99.90;;;;;;5006946;28;20044;-68
2023/01/19 05:05:07;;;;;;;22.70;7.05;;;2.30;99.90;;;;;;5009730;28;20042;-68
2023/01/19 05:07:34;;;;;;;22.50;6.18;;;2.30;99.90;;;;;;5010447;28;20065;-69
2023/01/19 05:10:00;;;;;;;19.52;6.43;;;2.30;99.90;;;;;;5011332;28;20403;-69
2023/01/19 05:12:25;;;;;;;14.82;6.18;;;2.30;99.90;;;;;;5010845;28;20034;-69
2023/01/19 05:14:51;;;;;;;20.33;6.30;;;2.30;99.90;;;;;;5011753;28;20602;-69
2023/01/19 05:17:16;;;;;;;18.63;6.03;;;2.30;99.90;;;;;;5009930;28;20042;-69
2023/01/19 05:19:42;;;;;;;12.15;5.45;;;2.20;99.90;;;;;;5011041;28;20092;-69
2023/01/19 05:22:08;;;;;;;17.58;5.22;;;2.30;99.90;;;;;;5026892;28;20125;-69
2023/01/19 05:24:34;;;;;;;16.60;5.45;;;2.30;99.90;;;;;;5011937;28;20037;-69
2023/01/19 05:27:00;;;;;;;19.73;5.97;;;2.40;99.90;;;;;;5010835;28;20050;-69
2023/01/19 05:29:26;;;;;;;14.00;5.20;;;2.30;99.90;;;;;;5009523;28;20034;-69
2023/01/19 05:31:52;;;;;;;14.82;5.80;;;2.40;99.90;;;;;;5011259;28;20153;-68
2023/01/19 05:34:17;;;;;;;12.05;4.25;;;2.40;99.90;;;;;;5006588;28;20235;-68
2023/01/19 05:36:43;;;;;;;20.40;4.35;;;2.40;99.90;;;;;;5008534;28;20447;-68
2023/01/19 05:39:09;;;;;;;19.20;3.60;;;2.40;99.90;;;;;;5012264;28;20082;-68
2023/01/19 05:41:35;;;;;;;14.82;3.10;;;2.50;99.90;;;;;;5007350;28;20083;-69
2023/01/19 05:44:00;;;;;;;18.27;3.17;;;2.50;99.90;;;;;;5010246;28;20033;-69
2023/01/19 05:46:26;;;;;;;10.52;2.97;;;2.50;99.90;;;;;;5010376;28;20096;-69
2023/01/19 05:48:52;;;;;;;9.85;2.60;;;2.60;99.90;;;;;;5010192;28;20863;-70
2023/01/19 05:51:18;;;;;;;6.63;2.00;;;2.50;99.90;;;;;;5009343;28;20042;-68
2023/01/19 05:53:43;;;;;;;11.65;2.17;;;2.50;99.90;;;;;;5012623;28;20392;-70
2023/01/19 05:56:09;;;;;;;12.23;1.80;;;2.60;99.90;;;;;;5010048;28;20045;-68
2023/01/19 05:58:38;;;;;;;10.38;2.13;;;2.60;99.90;;;;;;5014628;28;20042;-70
2023/01/19 06:01:08;;;;;;;10.02;1.55;;;2.60;99.90;;;;;;5007699;28;20101;-68
2023/01/19 06:03:35;;;;;;;8.70;1.45;;;2.60;99.90;;;;;;5014837;28;20411;-70
2023/01/19 06:06:02;;;;;;;8.68;1.60;;;2.60;99.90;;;;;;5012605;28;20085;-69
2023/01/19 06:08:28;;;;;;;3.72;1.45;;;2.70;99.90;;;;;;5012867;28;20048;-69
2023/01/19 06:10:53;;;;;;;6.03;1.30;;;2.60;99.90;;;;;;5006516;28;20472;-68
2023/01/19 06:13:20;;;;;;;8.40;1.50;;;2.70;99.90;;;;;;5008524;28;20042;-69
2023/01/19 06:15:45;;;;;;;9.90;1.60;;;2.70;99.90;;;;;;5010905;28;20080;-68
2023/01/19 06:18:13;;;;;;;10.20;2.17;;;2.70;99.90;;;;;;5013863;28;20065;-69
2023/01/19 06:20:39;;;;;;;9.70;1.65;;;2.70;99.90;;;;;;5012456;28;20101;-69
2023/01/19 06:23:05;;;;;;;14.70;1.85;;;2.70;99.90;;;;;;5010318;28;20133;-70
2023/01/19 06:25:31;;;;;;;7.53;1.77;;;2.70;99.90;;;;;;5009492;28;20053;-70
2023/01/19 06:27:56;;;;;;;6.82;1.88;;;2.80;99.90;;;;;;5012842;28;20042;-70
2023/01/19 06:30:22;;;;;;;11.13;1.90;;;2.80;99.90;;;;;;5007892;28;20608;-70
2023/01/19 06:32:48;;;;;;;6.80;1.30;;;2.80;99.90;;;;;;5014125;28;20054;-69
2023/01/19 06:35:14;;;;;;;10.15;1.95;;;2.80;99.90;;;;;;5011554;28;20046;-70
2023/01/19 06:37:39;;;;;;;10.10;1.63;;;2.80;99.90;;;;;;5014382;28;20124;-69
2023/01/19 06:40:06;;;;;;;12.15;1.52;;;2.90;99.90;;;;;;5013841;28;20100;-69
2023/01/19 06:42:31;;;;;;;12.38;1.50;;;2.90;99.90;;;;;;5009338;28;21611;-70
2023/01/19 06:44:57;;;;;;;15.25;1.73;;;2.80;99.90;;;;;;5009160;28;20041;-69
2023/01/19 06:47:23;;;;;;;7.32;1.65;;;2.80;99.90;;;;;;5010671;28;20034;-68
2023/01/19 06:49:48;;;;;;;13.88;1.95;;;2.80;99.90;;;;;;5009275;28;20117;-69
2023/01/19 06:52:15;;;;;;;9.18;1.40;;;2.80;99.90;;;;;;5011721;28;20542;-68
2023/01/19 06:54:42;;;;;;;14.75;1.67;;;2.70;99.90;;;;;;5013106;28;20591;-69
2023/01/19 06:57:08;;;;;;;10.48;2.03;;;2.70;99.90;;;;;;5012296;28;20046;-69
2023/01/19 06:59:34;;;;;;;13.50;1.92;;;2.60;99.90;;;;;;5011726;28;20093;-69
2023/01/19 07:01:59;;;;;;;11.27;2.08;;;2.60;99.90;;;;;;5012457;28;20038;-69
2023/01/19 07:04:25;;;;;;;15.68;2.35;;;2.60;99.90;;;;;;5007717;28;20091;-68
2023/01/19 07:06:51;;;;;;;15.73;2.15;;;2.60;99.90;;;;;;5010466;28;20054;-69
2023/01/19 07:09:19;;;;;;;17.20;2.15;;;2.60;99.90;;;;;;5008244;28;20056;-68
2023/01/19 07:11:45;;;;;;;10.80;2.47;;;2.60;99.90;;;;;;5006093;28;20100;-68
2023/01/19 07:14:10;;;;;;;12.32;1.67;;;2.60;99.90;;;;;;5010721;28;20038;-68
2023/01/19 07:16:36;;;;;;;12.15;2.53;;;2.60;99.90;;;;;;5010245;28;20042;-68
2023/01/19 07:19:02;;;;;;;14.73;1.92;;;2.70;99.90;;;;;;5013857;28;20056;-68
2023/01/19 07:21:28;;;;;;;15.90;1.77;;;2.60;99.90;;;;;;5011435;28;20057;-68
2023/01/19 07:23:53;;;;;;;12.15;1.50;;;2.70;99.90;;;;;;5010470;28;20136;-68
2023/01/19 07:26:20;;;;;;;11.75;2.55;;;2.70;99.90;;;;;;5012549;28;20109;-69
2023/01/19 07:28:48;;;;;;;11.35;1.90;;;2.70;99.90;;;;;;5011387;28;20046;-69
2023/01/19 07:31:14;;;;;;;11.60;1.77;;;2.70;99.90;;;;;;5002306;28;20038;-69
2023/01/19 07:33:40;;;;;;;13.00;2.25;;;2.80;99.90;;;;;;5008287;28;20030;-69
2023/01/19 07:36:07;;;;;;;13.93;1.92;;;2.80;99.90;;;;;;5012062;28;20077;-69
2023/01/19 07:38:32;;;;;;;11.90;1.83;;;2.80;99.90;;;;;;5014612;28;20045;-69
2023/01/19 07:41:06;;;;;;;19.40;2.97;;;2.80;99.90;;;;;;5012719;28;20045;-69
2023/01/19 07:43:32;;;;;;;17.77;2.78;;;2.80;99.90;;;;;;5010839;28;20509;-69
2023/01/19 07:45:59;;;;;;;14.90;2.35;;;2.90;99.90;;;;;;5011821;28;20102;-69
2023/01/19 07:48:25;;;;;;;14.35;2.08;;;2.90;99.90;;;;;;5012905;28;20042;-69
2023/01/19 07:50:51;;;;;;;12.75;2.55;;;3.00;99.90;;;;;;5012911;28;20048;-69
2023/01/19 07:53:16;;;;;;;27.50;3.08;;;3.00;99.90;;;;;;5012715;28;20060;-69
2023/01/19 07:55:43;;;;;;;19.42;2.10;;;3.00;99.90;;;;;;5008689;28;20542;-69
2023/01/19 07:58:08;;;;;;;13.13;2.03;;;3.10;99.90;;;;;;5006600;28;20045;-69
2023/01/19 08:00:36;;;;;;;23.10;2.30;;;3.10;99.90;;;;;;5008270;28;20103;-69
2023/01/19 08:03:03;;;;;;;19.23;2.78;;;3.20;99.90;;;;;;5006959;28;20041;-68
2023/01/19 08:05:30;;;;;;;35.85;3.38;;;3.30;99.90;;;;;;5009589;28;20523;-69
2023/01/19 08:07:59;;;;;;;22.35;2.88;;;3.30;99.90;;;;;;5006848;28;20054;-68
2023/01/19 08:10:26;;;;;;;13.88;1.80;;;3.30;99.90;;;;;;5009115;28;20133;-68
2023/01/19 08:12:56;;;;;;;21.13;2.37;;;3.40;99.90;;;;;;5009162;28;20046;-68
2023/01/19 08:15:23;;;;;;;13.98;2.13;;;3.40;99.90;;;;;;5012578;28;20489;-68
2023/01/19 08:18:04;;;;;;;14.32;2.00;;;3.40;99.90;;;;;;5011801;28;20042;-68
2023/01/19 08:20:30;;;;;;;8.60;1.75;;;3.40;99.90;;;;;;5015702;28;20048;-67
2023/01/19 08:23:01;;;;;;;17.83;2.15;;;3.40;99.90;;;;;;5011801;28;20038;-68
2023/01/19 08:25:36;;;;;;;10.93;2.22;;;3.40;99.90;;;;;;5007519;28;20050;-69
2023/01/19 08:28:03;;;;;;;15.73;2.40;;;3.50;99.90;;;;;;5009235;28;20456;-70
2023/01/19 08:30:29;;;;;;;13.20;2.17;;;3.50;99.90;;;;;;5014093;28;20490;-69
2023/01/19 08:33:02;;;;;;;21.40;3.67;;;3.60;99.90;;;;;;5007328;28;20038;-68
2023/01/19 08:35:32;;;;;;;17.45;2.10;;;3.60;99.90;;;;;;5007100;28;20049;-68
2023/01/19 08:38:00;;;;;;;22.35;2.67;;;3.60;99.90;;;;;;5008195;28;20077;-68
2023/01/19 08:40:28;;;;;;;17.85;2.85;;;3.70;99.90;;;;;;5011238;28;20084;-67
2023/01/19 08:42:59;;;;;;;19.60;3.05;;;3.70;99.90;;;;;;5009132;28;20121;-68
2023/01/19 08:45:26;;;;;;;20.92;2.60;;;3.70;99.90;;;;;;5003815;28;20093;-70
2023/01/19 08:47:51;;;;;;;21.55;2.40;;;3.70;99.90;;;;;;5004695;28;20057;-69
2023/01/19 08:50:17;;;;;;;15.02;2.35;;;3.80;99.90;;;;;;5010692;28;20038;-70
2023/01/19 08:52:42;;;;;;;15.63;2.75;;;3.90;99.90;;;;;;5009490;28;20132;-68
2023/01/19 08:55:10;;;;;;;16.38;2.38;;;4.00;99.90;;;;;;5005503;28;20034;-68
2023/01/19 08:57:35;;;;;;;14.32;2.40;;;4.10;99.90;;;;;;5011111;28;20117;-68
2023/01/19 09:00:03;;;;;;;16.38;3.03;;;4.20;99.90;;;;;;5009052;28;20435;-68
2023/01/19 09:02:29;;;;;;;20.40;2.67;;;4.20;99.90;;;;;;5011241;28;20037;-69
2023/01/19 09:04:54;;;;;;;13.90;2.90;;;4.30;99.90;;;;;;5007751;28;20308;-67
2023/01/19 09:07:20;;;;;;;15.73;2.97;;;4.30;99.90;;;;;;5010861;28;20046;-69
2023/01/19 09:09:46;;;;;;;16.10;3.00;;;4.30;99.90;;;;;;5008957;28;20050;-69
2023/01/19 09:12:11;;;;;;;19.17;4.10;;;4.30;99.90;;;;;;5010781;28;20046;-69
2023/01/19 09:14:37;;;;;;;13.43;2.53;;;4.30;99.90;;;;;;5008100;28;20038;-70
2023/01/19 09:17:03;;;;;;;19.90;2.78;;;4.20;99.90;;;;;;5009317;28;20042;-69
2023/01/19 09:19:28;;;;;;;20.05;3.53;;;4.00;99.90;;;;;;5011785;28;20069;-67
2023/01/19 09:21:54;;;;;;;18.40;2.35;;;4.00;99.90;;;;;;5008058;28;20057;-69
2023/01/19 09:24:19;;;;;;;16.17;2.33;;;3.90;99.90;;;;;;5010649;28;20046;-68
2023/01/19 09:26:45;;;;;;;18.13;2.83;;;3.80;99.90;;;;;;5010229;28;20042;-68
2023/01/19 09:29:11;;;;;;;17.88;2.60;;;3.70;99.90;;;;;;5010254;28;20129;-69
2023/01/19 09:31:37;;;;;;;14.65;2.50;;;3.70;99.90;;;;;;5006001;28;20052;-68
2023/01/19 09:34:03;;;;;;;17.88;4.18;;;3.60;99.90;;;;;;5009130;28;20046;-69
2023/01/19 09:36:29;;;;;;;18.92;2.80;;;3.50;99.90;;;;;;5008678;28;20096;-69
2023/01/19 09:38:54;;;;;;;16.42;2.45;;;3.50;99.90;;;;;;5008510;28;20053;-69
2023/01/19 09:41:21;;;;;;;19.65;2.30;;;3.50;99.90;;;;;;5011707;28;20100;-68
2023/01/19 09:43:55;;;;;;;16.83;2.70;;;3.50;99.90;;;;;;5007018;28;20506;-68
2023/01/19 09:46:27;;;;;;;20.95;3.10;;;3.50;99.90;;;;;;5005405;28;20484;-68
2023/01/19 09:48:56;;;;;;;11.68;2.30;;;3.70;99.90;;;;;;5016692;28;20402;-68
2023/01/19 09:51:33;;;;;;;13.20;2.25;;;3.90;99.90;;;;;;5009263;28;20041;-69
2023/01/19 09:54:05;;;;;;;13.88;1.85;;;4.10;99.90;;;;;;5005935;28;20042;-69
2023/01/19 09:56:31;;;;;;;14.63;2.22;;;4.40;99.90;;;;;;5028090;28;20050;-68
2023/01/19 09:58:58;;;;;;;15.25;2.20;;;4.60;99.90;;;;;;5010301;28;20126;-68
2023/01/19 10:01:35;;;;;;;15.77;3.50;;;4.70;99.90;;;;;;5002319;28;20056;-68
2023/01/19 10:04:06;;;;;;;17.27;3.20;;;4.90;99.90;;;;;;5004727;28;20050;-69
2023/01/19 10:06:32;;;;;;;13.75;2.42;;;5.10;99.90;;;;;;5005819;28;20135;-69
2023/01/19 10:09:22;;;;;;;17.48;2.45;;;5.30;99.90;;;;;;5010220;28;20479;-69
2023/01/19 10:11:55;;;;;;;;;;;5.50;99.90;;;;;;5003978;28;20538;-69
2023/01/19 10:14:33;;;;;;;12.77;1.85;;;5.70;99.90;;;;;;5005823;28;19921;-68
2023/01/19 10:17:17;;;;;;;12.90;2.22;;;6.00;99.90;;;;;;5009748;28;20113;-70
2023/01/19 10:19:49;;;;;;;23.15;2.70;;;6.20;99.90;;;;;;5010494;28;20072;-68
2023/01/19 10:22:27;;;;;;;16.65;2.03;;;6.40;99.90;;;;;;5011527;28;20049;-68
2023/01/19 10:25:00;;;;;;;15.70;2.42;;;6.50;99.90;;;;;;5026019;28;20183;-70
2023/01/19 10:27:29;;;;;;;12.02;2.65;;;6.60;99.90;;;;;;5006226;28;20046;-71
2023/01/19 10:29:56;;;;;;;15.73;3.00;;;6.60;99.90;;;;;;5008212;28;20084;-70
2023/01/19 10:32:29;;;;;;;16.80;2.65;;;6.50;99.90;;;;;;5010191;28;20491;-68
2023/01/19 10:34:56;;;;;;;17.50;2.30;;;6.20;99.90;;;;;;5012211;28;20045;-68
2023/01/19 10:37:36;;;;;;;12.10;2.42;;;5.90;99.90;;;;;;5009343;28;20129;-68
2023/01/19 10:40:18;;;;;;;16.98;3.20;;;5.60;99.90;;;;;;5010821;28;20125;-67
2023/01/19 10:42:44;;;;;;;15.20;2.92;;;5.30;99.90;;;;;;5010743;28;20046;-68
2023/01/19 10:45:23;;;;;;;10.68;2.13;;;5.10;99.90;;;;;;5012388;28;21685;-67
2023/01/19 10:47:49;;;;;;;12.20;2.50;;;5.00;99.90;;;;;;5012088;28;20049;-68
2023/01/19 10:50:33;;;;;;;18.17;2.38;;;4.90;99.90;;;;;;5013187;28;20060;-66
2023/01/19 10:53:02;;;;;;;21.23;2.60;;;4.90;99.90;;;;;;5013558;28;20125;-68
2023/01/19 10:55:36;;;;;;;17.17;3.40;;;4.80;99.90;;;;;;5013609;28;20483;-69
2023/01/19 10:58:03;;;;;;;15.10;2.35;;;4.80;99.90;;;;;;5010464;28;20046;-69
2023/01/19 11:00:40;;;;;;;15.65;2.83;;;4.70;99.90;;;;;;5004276;28;20037;-69
2023/01/19 11:03:28;;;;;;;17.20;2.88;;;4.70;99.90;;;;;;5014540;28;20042;-68
2023/01/19 11:06:12;;;;;;;11.98;2.75;;;4.70;99.90;;;;;;5012331;28;20416;-68
2023/01/19 11:08:38;;;;;;;12.30;2.72;;;4.70;99.90;;;;;;5010689;28;20499;-68
2023/01/19 11:11:07;;;;;;;18.20;3.53;;;4.60;99.90;;;;;;5013694;28;20097;-68
2023/01/19 11:13:34;;;;;;;14.45;2.78;;;4.60;99.90;;;;;;4993483;28;20049;-67
2023/01/19 11:16:26;;;;;;;23.38;3.00;;;4.60;99.90;;;;;;5013745;28;20041;-67
2023/01/19 11:18:53;;;;;;;20.88;2.50;;;4.60;99.90;;;;;;5014705;28;20042;-68
2023/01/19 11:21:24;;;;;;;14.97;2.93;;;4.60;99.90;;;;;;5011935;28;20512;-67
2023/01/19 11:23:52;;;;;;;9.65;2.30;;;4.60;99.90;;;;;;5009554;28;20045;-68
2023/01/19 11:26:25;;;;;;;15.05;2.05;;;4.60;99.90;;;;;;4993781;28;20411;-68
2023/01/19 11:28:53;;;;;;;12.68;2.50;;;4.60;99.90;;;;;;5011765;28;20049;-68
2023/01/19 11:31:39;;;;;;;13.50;2.60;;;4.50;99.90;;;;;;5009257;28;20038;-68
2023/01/19 11:34:23;;;;;;;15.55;2.17;;;4.60;99.90;;;;;;5011640;28;20515;-67
2023/01/19 11:37:17;;;;;;;20.60;2.15;;;4.60;99.90;;;;;;5008461;28;20069;-67
2023/01/19 11:39:55;;;;;;;14.38;1.83;;;4.80;99.90;;;;;;5007358;28;20085;-67
2023/01/19 11:42:21;;;;;;;17.63;2.53;;;4.90;99.90;;;;;;5005771;28;20050;-67
2023/01/19 11:45:03;;;;;;;15.65;3.58;;;5.10;99.90;;;;;;5005193;28;20045;-68
2023/01/19 11:47:38;;;;;;;13.73;2.85;;;5.20;99.90;;;;;;4994983;28;20050;-67
2023/01/19 11:50:23;;;;;;;13.75;2.65;;;5.30;99.90;;;;;;5012219;28;20573;-67
2023/01/19 11:53:08;;;;;;;18.35;2.53;;;5.40;99.90;;;;;;5010093;28;20076;-67
2023/01/19 11:55:52;;;;;;;16.88;3.03;;;5.50;99.90;;;;;;5008964;28;20092;-68
2023/01/19 11:58:18;;;;;;;10.30;2.42;;;5.60;99.90;;;;;;5013399;28;20499;-68
2023/01/19 12:00:59;;;;;;;24.95;2.53;;;5.60;99.90;;;;;;5015663;28;20046;-68
2023/01/19 12:03:32;;;;;;;7.57;1.83;;;5.70;99.90;;;;;;5008145;28;20073;-67
2023/01/19 12:06:05;;;;;;;15.30;3.03;;;5.80;99.90;;;;;;5008595;28;20126;-68
2023/01/19 12:09:09;;;;;;;14.80;1.95;;;5.90;99.90;;;;;;5002645;28;20099;-68
2023/01/19 12:11:39;;;;;;;16.98;2.20;;;5.90;99.90;;;;;;5003153;28;20058;-67
2023/01/19 12:14:20;;;;;;;15.55;3.47;;;5.80;99.90;;;;;;5008115;28;20056;-67
2023/01/19 12:16:47;;;;;;;13.68;2.22;;;5.60;99.90;;;;;;5009647;28;20034;-68
2023/01/19 12:19:17;;;;;;;12.73;1.92;;;5.40;99.90;;;;;;5012667;28;20418;-67
2023/01/19 12:21:46;;;;;;;8.80;1.92;;;5.30;99.90;;;;;;5005336;28;20483;-67
2023/01/19 12:24:29;;;;;;;10.25;2.03;;;5.20;99.90;;;;;;5009972;28;20050;-67
2023/01/19 12:26:57;;;;;;;10.07;1.65;;;5.00;99.90;;;;;;5011082;28;20542;-67
2023/01/19 12:29:28;;;;;;;6.15;1.30;;;4.90;99.90;;;;;;5006101;28;20125;-67
2023/01/19 12:32:12;;;;;;;13.95;1.70;;;4.80;99.90;;;;;;5009844;28;20038;-68
2023/01/19 12:34:42;;;;;;;17.55;2.20;;;4.70;99.90;;;;;;5009512;28;20550;-68
2023/01/19 12:37:27;;;;;;;10.20;2.20;;;4.70;99.90;;;;;;5007639;28;20403;-67
2023/01/19 12:39:55;;;;;;;12.13;1.70;;;4.60;99.90;;;;;;5011636;28;20058;-69
2023/01/19 12:42:21;;;;;;;13.70;2.42;;;4.60;99.90;;;;;;5008974;28;20495;-68
2023/01/19 12:44:47;;;;;;;14.73;2.03;;;4.80;99.90;;;;;;5009809;28;20038;-68
2023/01/19 12:47:13;;;;;;;10.90;1.65;;;4.70;99.90;;;;;;5010173;28;20045;-68
2023/01/19 12:49:45;;;;;;;11.90;2.05;;;4.70;99.90;;;;;;5008802;28;20046;-67
2023/01/19 12:52:15;;;;;;;9.63;1.70;;;4.80;99.90;;;;;;5007295;28;20488;-68
2023/01/19 12:54:49;;;;;;;11.23;1.63;;;4.80;99.90;;;;;;5011107;28;20092;-67
2023/01/19 12:57:22;;;;;;;8.85;1.73;;;4.80;99.90;;;;;;5010118;28;20566;-67
2023/01/19 12:59:58;;;;;;;14.82;1.25;;;4.90;99.90;;;;;;5009793;28;20037;-69
2023/01/19 13:02:40;;;;;;;9.77;1.73;;;5.00;99.90;;;;;;5008857;28;20076;-69
2023/01/19 13:05:12;;;;;;;12.45;2.63;;;5.00;99.90;;;;;;5005425;28;20040;-68